Time;durP1;ratioP1;P1;durP2;ratioP2;P2;SDS_P1;SDS_P2;PMS_P1;PMS_P2;Temp;Humidity;BMP_temperature;BMP_pressure;BME280_temperature;BME280_humidity;BME280_pressure;Samples;Min_cycle;Max_cycle;Signal;HPM_P1;HPM_P2
2022/10/25 00:02:22;;;;;;;0.60;0.60;;;8.90;99.90;;;;;;5037178;28;20193;-76
2022/10/25 00:04:48;;;;;;;0.60;0.60;;;8.90;99.90;;;;;;5055215;28;20193;-75
2022/10/25 00:07:14;;;;;;;0.60;0.60;;;8.90;99.90;;;;;;5054437;28;20221;-75
2022/10/25 00:09:40;;;;;;;0.55;0.55;;;9.00;99.90;;;;;;5037193;28;20660;-74
2022/10/25 00:12:06;;;;;;;0.50;0.50;;;9.00;99.90;;;;;;5055015;28;20197;-75
2022/10/25 00:14:32;;;;;;;0.60;0.60;;;9.00;99.90;;;;;;5036940;28;20201;-75
2022/10/25 00:16:57;;;;;;;0.60;0.60;;;9.00;99.90;;;;;;5054540;28;20212;-74
2022/10/25 00:19:23;;;;;;;0.60;0.60;;;9.00;99.90;;;;;;5054646;28;20186;-75
2022/10/25 00:21:49;;;;;;;0.60;0.60;;;9.00;99.90;;;;;;5036950;28;20248;-75
2022/10/25 00:24:15;;;;;;;0.60;0.60;;;9.00;99.90;;;;;;5036900;28;20297;-74
2022/10/25 00:26:41;;;;;;;0.60;0.60;;;9.00;99.90;;;;;;5054498;28;20281;-77
2022/10/25 00:29:09;;;;;;;0.60;0.60;;;8.90;99.90;;;;;;5036615;28;20224;-76
2022/10/25 00:31:36;;;;;;;0.50;0.50;;;8.90;99.90;;;;;;5053844;28;20296;-77
2022/10/25 00:34:02;;;;;;;0.52;0.52;;;9.00;99.90;;;;;;5036520;28;20650;-76
2022/10/25 00:36:31;;;;;;;0.52;0.52;;;9.00;99.90;;;;;;5054262;28;20244;-75
2022/10/25 00:38:57;;;;;;;0.60;0.60;;;8.90;99.90;;;;;;5064568;28;20559;-75
2022/10/25 00:41:27;;;;;;;0.50;0.50;;;8.90;99.90;;;;;;5074366;28;20211;-74
2022/10/25 00:44:34;;;;;;;0.50;0.50;;;9.00;99.90;;;;;;5074196;28;20228;-75
2022/10/25 00:47:09;;;;;;;0.50;0.50;;;9.00;99.90;;;;;;5058246;28;20209;-75
2022/10/25 00:49:35;;;;;;;0.50;0.50;;;9.00;99.90;;;;;;5035994;28;20566;-74
2022/10/25 00:52:04;;;;;;;0.60;0.60;;;9.00;99.90;;;;;;5054051;28;20189;-77
2022/10/25 00:54:36;;;;;;;0.60;0.60;;;9.00;99.90;;;;;;5053913;28;20704;-76
2022/10/25 00:57:11;;;;;;;0.70;0.70;;;9.00;99.90;;;;;;5052962;28;20631;-76
2022/10/25 00:59:41;;;;;;;0.50;0.50;;;9.00;99.90;;;;;;5053933;28;20703;-75
2022/10/25 01:02:07;;;;;;;0.52;0.52;;;9.00;99.90;;;;;;5053713;28;20204;-76
2022/10/25 01:04:33;;;;;;;0.60;0.60;;;9.00;99.90;;;;;;5053758;28;20556;-75
2022/10/25 01:07:01;;;;;;;3.40;1.08;;;9.00;99.90;;;;;;5036029;28;20212;-76
2022/10/25 01:09:30;;;;;;;0.50;0.50;;;9.00;99.90;;;;;;5053624;28;20194;-75
2022/10/25 01:11:56;;;;;;;0.50;0.50;;;9.00;99.90;;;;;;5053468;28;20208;-75
2022/10/25 01:14:22;;;;;;;0.50;0.50;;;9.00;99.90;;;;;;5053613;28;20197;-75
2022/10/25 01:16:48;;;;;;;0.50;0.50;;;9.00;99.90;;;;;;5035768;28;20209;-76
2022/10/25 01:19:51;;;;;;;0.50;0.50;;;9.10;99.90;;;;;;5053528;28;20280;-75
2022/10/25 01:22:41;;;;;;;0.52;0.52;;;9.00;99.90;;;;;;5035582;28;20223;-76
2022/10/25 01:25:15;;;;;;;0.52;0.52;;;9.10;99.90;;;;;;5053479;28;20268;-76
2022/10/25 01:27:55;;;;;;;0.82;0.80;;;9.10;99.90;;;;;;5053093;28;20713;-75
2022/10/25 01:30:23;;;;;;;1.23;0.80;;;9.10;99.90;;;;;;5035677;28;20232;-74
2022/10/25 01:33:03;;;;;;;0.50;0.50;;;9.10;99.90;;;;;;5035412;28;20193;-74
2022/10/25 01:35:33;;;;;;;0.50;0.50;;;9.10;99.90;;;;;;5066583;28;20679;-75
2022/10/25 01:38:14;;;;;;;0.50;0.50;;;9.20;99.90;;;;;;5073177;28;20188;-75
2022/10/25 01:40:56;;;;;;;0.60;0.60;;;9.20;99.90;;;;;;5068065;28;20205;-75
2022/10/25 01:43:45;;;;;;;0.40;0.40;;;9.10;99.90;;;;;;5034625;28;20647;-75
2022/10/25 01:46:43;;;;;;;0.60;0.60;;;9.10;99.90;;;;;;5024753;28;20216;-76
2022/10/25 01:49:15;;;;;;;0.60;0.60;;;9.10;99.90;;;;;;5047669;28;20210;-76
2022/10/25 01:51:41;;;;;;;0.60;0.60;;;9.20;99.90;;;;;;5046474;28;20206;-74
2022/10/25 01:54:24;;;;;;;0.60;0.60;;;9.30;99.90;;;;;;5031832;28;20202;-75
2022/10/25 01:57:16;;;;;;;0.50;0.50;;;9.30;99.90;;;;;;5033270;28;20669;-76
2022/10/25 02:00:12;;;;;;;0.40;0.40;;;9.30;99.90;;;;;;5032950;28;20194;-74
2022/10/25 02:03:12;;;;;;;0.47;0.47;;;9.30;99.90;;;;;;5049241;28;20193;-76
2022/10/25 02:06:06;;;;;;;0.60;0.60;;;9.30;99.90;;;;;;5052847;28;20603;-78
2022/10/25 02:08:40;;;;;;;0.60;0.60;;;9.30;99.90;;;;;;5034610;28;20240;-80
2022/10/25 02:11:21;;;;;;;0.73;0.73;;;9.30;99.90;;;;;;5052970;28;20438;-78
2022/10/25 02:14:06;;;;;;;0.52;0.52;;;9.30;99.90;;;;;;5052750;28;20193;-77
2022/10/25 02:16:38;;;;;;;0.50;0.50;;;9.30;99.90;;;;;;5034825;28;20220;-77
2022/10/25 02:19:11;;;;;;;0.77;0.77;;;9.30;99.90;;;;;;5052745;28;20707;-77
2022/10/25 02:21:37;;;;;;;0.80;0.80;;;9.20;99.90;;;;;;5034769;28;20194;-76
2022/10/25 02:24:09;;;;;;;0.80;0.80;;;9.30;99.90;;;;;;5052867;28;20648;-77
2022/10/25 02:26:36;;;;;;;1.02;0.73;;;9.30;99.90;;;;;;5034574;28;20259;-77
2022/10/25 02:29:05;;;;;;;0.60;0.60;;;9.30;99.90;;;;;;5034810;28;20227;-77
2022/10/25 02:31:34;;;;;;;0.60;0.60;;;9.30;99.90;;;;;;5064039;28;20655;-77
2022/10/25 02:34:00;;;;;;;0.60;0.60;;;9.30;99.90;;;;;;5054744;28;20197;-76
2022/10/25 02:36:26;;;;;;;0.50;0.50;;;9.30;99.90;;;;;;5072537;28;20572;-76
2022/10/25 02:38:52;;;;;;;0.95;0.90;;;9.30;99.90;;;;;;5054001;28;20200;-75
2022/10/25 02:41:20;;;;;;;0.55;0.55;;;9.30;99.90;;;;;;5072749;28;20200;-76
2022/10/25 02:43:46;;;;;;;0.60;0.60;;;9.30;99.90;;;;;;5072373;28;20263;-77
2022/10/25 02:46:17;;;;;;;0.50;0.50;;;9.30;99.90;;;;;;5063429;28;20240;-77
2022/10/25 02:48:43;;;;;;;0.60;0.60;;;9.30;99.90;;;;;;5052328;28;20665;-77
2022/10/25 02:51:10;;;;;;;0.70;0.70;;;9.30;99.90;;;;;;5050711;28;20273;-77
2022/10/25 02:53:36;;;;;;;0.60;0.60;;;9.40;99.90;;;;;;5032421;28;20210;-77
2022/10/25 02:56:11;;;;;;;0.60;0.60;;;9.40;99.90;;;;;;5032271;28;20213;-77
2022/10/25 02:58:40;;;;;;;0.50;0.50;;;9.40;99.90;;;;;;5032293;28;20641;-76
2022/10/25 03:01:06;;;;;;;0.50;0.50;;;9.50;99.90;;;;;;5032880;28;20201;-77
2022/10/25 03:03:33;;;;;;;0.50;0.50;;;9.50;99.90;;;;;;5055718;28;20221;-77
2022/10/25 03:05:58;;;;;;;0.80;0.80;;;9.50;99.90;;;;;;5056149;28;20205;-77
2022/10/25 03:08:25;;;;;;;0.50;0.50;;;9.50;99.90;;;;;;5055973;28;20200;-77
2022/10/25 03:10:51;;;;;;;0.60;0.60;;;9.40;99.90;;;;;;5056223;28;20201;-77
2022/10/25 03:13:17;;;;;;;0.68;0.68;;;9.40;99.90;;;;;;5038508;28;20293;-77
2022/10/25 03:15:44;;;;;;;0.50;0.50;;;9.40;99.90;;;;;;5056135;28;20209;-77
2022/10/25 03:18:10;;;;;;;0.50;0.50;;;9.50;99.90;;;;;;5055925;28;20199;-77
2022/10/25 03:20:36;;;;;;;0.60;0.60;;;9.50;99.90;;;;;;5055748;28;20236;-76
2022/10/25 03:23:02;;;;;;;0.45;0.45;;;9.50;99.90;;;;;;5037352;28;20221;-76
2022/10/25 03:25:31;;;;;;;0.70;0.70;;;9.50;99.90;;;;;;5055447;28;20719;-76
2022/10/25 03:27:59;;;;;;;0.60;0.60;;;9.50;99.90;;;;;;5050872;28;20197;-77
2022/10/25 03:30:25;;;;;;;0.60;0.60;;;9.50;99.90;;;;;;5075611;28;20193;-76
2022/10/25 03:32:52;;;;;;;0.60;0.60;;;9.50;99.90;;;;;;5057452;28;20201;-76
2022/10/25 03:35:17;;;;;;;0.50;0.50;;;9.50;99.90;;;;;;5075604;28;20201;-77
2022/10/25 03:37:43;;;;;;;0.60;0.60;;;9.50;99.90;;;;;;5075419;28;20537;-76
2022/10/25 03:40:09;;;;;;;0.43;0.43;;;9.50;99.90;;;;;;5075561;28;20607;-78
2022/10/25 03:42:35;;;;;;;0.60;0.60;;;9.50;99.90;;;;;;5057130;28;20593;-77
2022/10/25 03:45:01;;;;;;;0.70;0.70;;;9.50;99.90;;;;;;5057538;28;20201;-77
2022/10/25 03:47:27;;;;;;;0.70;0.70;;;9.50;99.90;;;;;;5075162;28;20185;-78
2022/10/25 03:49:53;;;;;;;3.67;0.88;;;9.60;99.90;;;;;;5075469;28;20201;-78
2022/10/25 03:52:18;;;;;;;0.88;0.88;;;9.60;99.90;;;;;;5034692;28;20202;-77
2022/10/25 03:54:44;;;;;;;0.50;0.50;;;9.60;99.90;;;;;;5035115;28;20218;-76
2022/10/25 03:57:09;;;;;;;0.50;0.50;;;9.60;99.90;;;;;;5035251;28;20269;-76
2022/10/25 03:59:35;;;;;;;0.73;0.73;;;9.60;99.90;;;;;;5017325;28;20204;-77
2022/10/25 04:02:01;;;;;;;0.88;0.88;;;9.60;99.90;;;;;;5050475;28;20204;-75
2022/10/25 04:04:26;;;;;;;0.60;0.60;;;9.60;99.90;;;;;;5055035;28;20190;-77
2022/10/25 04:06:52;;;;;;;0.60;0.60;;;9.60;99.90;;;;;;5055088;28;20193;-76
2022/10/25 04:09:18;;;;;;;0.75;0.60;;;9.70;99.90;;;;;;5054908;28;20193;-76
2022/10/25 04:11:43;;;;;;;0.73;0.73;;;9.70;99.90;;;;;;5037050;28;20529;-77
2022/10/25 04:14:09;;;;;;;0.70;0.70;;;9.70;99.90;;;;;;5053923;28;20194;-77
2022/10/25 04:16:35;;;;;;;0.60;0.60;;;9.80;99.90;;;;;;5054718;28;20294;-78
2022/10/25 04:19:00;;;;;;;0.57;0.57;;;9.80;99.90;;;;;;5036947;28;20204;-78
2022/10/25 04:21:26;;;;;;;0.60;0.60;;;9.80;99.90;;;;;;5054523;28;20190;-77
2022/10/25 04:23:52;;;;;;;0.50;0.50;;;9.80;99.90;;;;;;5047027;28;20228;-77
2022/10/25 04:26:19;;;;;;;0.60;0.60;;;9.80;99.90;;;;;;5074603;28;20288;-78
2022/10/25 04:28:52;;;;;;;0.82;0.82;;;9.90;99.90;;;;;;5074799;28;20223;-77
2022/10/25 04:31:19;;;;;;;0.50;0.50;;;9.90;99.90;;;;;;5056647;28;20208;-77
2022/10/25 04:33:49;;;;;;;0.88;0.88;;;9.80;99.90;;;;;;5074748;28;20197;-77
2022/10/25 04:36:15;;;;;;;0.60;0.60;;;9.80;99.90;;;;;;5074532;28;20307;-77
2022/10/25 04:38:40;;;;;;;0.60;0.60;;;9.90;99.90;;;;;;5074178;28;20220;-78
2022/10/25 04:41:06;;;;;;;0.70;0.70;;;9.90;99.90;;;;;;5074155;28;20239;-78
2022/10/25 04:43:32;;;;;;;0.50;0.50;;;9.90;99.90;;;;;;5037537;28;20237;-78
2022/10/25 04:46:01;;;;;;;0.50;0.50;;;9.90;99.90;;;;;;5032670;28;20198;-77
2022/10/25 04:48:27;;;;;;;1.15;0.60;;;9.90;99.90;;;;;;5044188;28;20201;-77
2022/10/25 04:50:52;;;;;;;0.60;0.60;;;9.90;99.90;;;;;;5054214;28;20208;-77
2022/10/25 04:53:18;;;;;;;0.50;0.50;;;9.90;99.90;;;;;;5054122;28;20200;-76
2022/10/25 04:55:44;;;;;;;0.70;0.70;;;9.90;99.90;;;;;;5053969;28;20292;-74
2022/10/25 04:58:10;;;;;;;0.75;0.75;;;9.90;99.90;;;;;;5053927;28;20236;-77
2022/10/25 05:00:35;;;;;;;0.60;0.60;;;9.90;99.90;;;;;;5053778;28;20190;-77
2022/10/25 05:03:01;;;;;;;0.60;0.60;;;9.90;99.90;;;;;;5036259;28;20213;-76
2022/10/25 05:05:27;;;;;;;0.50;0.50;;;10.00;99.90;;;;;;5053985;28;20251;-76
2022/10/25 05:07:52;;;;;;;0.60;0.60;;;10.00;99.90;;;;;;5054005;28;20209;-76
2022/10/25 05:10:18;;;;;;;0.50;0.50;;;10.00;99.90;;;;;;5053861;28;20200;-76
2022/10/25 05:12:44;;;;;;;0.70;0.70;;;10.00;99.90;;;;;;5053525;28;20280;-77
2022/10/25 05:15:09;;;;;;;0.50;0.50;;;10.00;99.90;;;;;;5035938;28;20212;-77
2022/10/25 05:17:35;;;;;;;0.52;0.52;;;10.10;99.90;;;;;;5053679;28;20197;-77
2022/10/25 05:20:01;;;;;;;1.45;1.35;;;10.10;99.90;;;;;;5063193;28;20220;-77
2022/10/25 05:22:30;;;;;;;0.50;0.50;;;10.10;99.90;;;;;;5054991;28;20671;-77
2022/10/25 05:24:56;;;;;;;0.60;0.60;;;10.10;99.90;;;;;;5073030;28;20192;-78
2022/10/25 05:27:21;;;;;;;0.50;0.50;;;10.10;99.90;;;;;;5072931;28;20252;-77
2022/10/25 05:29:47;;;;;;;0.57;0.57;;;10.10;99.90;;;;;;5055749;28;20607;-77
2022/10/25 05:32:12;;;;;;;1.27;0.80;;;10.20;99.90;;;;;;5055508;28;20506;-77
2022/10/25 05:34:38;;;;;;;0.70;0.70;;;10.20;99.90;;;;;;5073112;28;20208;-77
2022/10/25 05:37:04;;;;;;;0.60;0.60;;;10.20;99.90;;;;;;5073357;28;20557;-77
2022/10/25 05:39:29;;;;;;;0.50;0.50;;;10.20;99.90;;;;;;5040424;28;20648;-77
2022/10/25 05:41:55;;;;;;;0.60;0.60;;;10.20;99.90;;;;;;5053367;28;20273;-77
2022/10/25 05:44:21;;;;;;;0.70;0.70;;;10.20;99.90;;;;;;5034802;28;20751;-76
2022/10/25 05:46:46;;;;;;;0.60;0.60;;;10.20;99.90;;;;;;5031791;28;20198;-77
2022/10/25 05:49:12;;;;;;;0.60;0.60;;;10.20;99.90;;;;;;5015401;28;20566;-77
2022/10/25 05:51:38;;;;;;;0.60;0.60;;;10.20;99.90;;;;;;5033037;28;20566;-78
2022/10/25 05:54:09;;;;;;;0.52;0.52;;;10.20;99.90;;;;;;5027419;28;20206;-78
2022/10/25 05:56:38;;;;;;;1.02;0.93;;;10.20;99.90;;;;;;5052889;28;20209;-78
2022/10/25 05:59:07;;;;;;;0.77;0.77;;;10.20;99.90;;;;;;5034950;28;20255;-78
2022/10/25 06:01:34;;;;;;;0.80;0.80;;;10.20;99.90;;;;;;5052759;28;20557;-77
2022/10/25 06:03:59;;;;;;;0.50;0.50;;;10.30;99.90;;;;;;5052452;28;20197;-77
2022/10/25 06:06:25;;;;;;;0.68;0.68;;;10.30;99.90;;;;;;5052372;28;20200;-77
2022/10/25 06:08:56;;;;;;;0.65;0.65;;;10.30;99.90;;;;;;5053082;28;20197;-78
2022/10/25 06:11:22;;;;;;;0.70;0.70;;;10.30;99.90;;;;;;5052720;28;20225;-77
2022/10/25 06:13:54;;;;;;;0.70;0.70;;;10.30;99.90;;;;;;5053666;28;20193;-79
2022/10/25 06:16:23;;;;;;;0.60;0.60;;;10.30;99.90;;;;;;5062728;28;20232;-77
2022/10/25 06:18:49;;;;;;;0.60;0.60;;;10.30;99.90;;;;;;5072981;28;20193;-77
2022/10/25 06:21:20;;;;;;;0.50;0.50;;;10.30;99.90;;;;;;5073324;28;20185;-77
2022/10/25 06:23:47;;;;;;;0.50;0.50;;;10.30;99.90;;;;;;5055007;28;20625;-77
2022/10/25 06:26:26;;;;;;;0.50;0.50;;;10.30;99.90;;;;;;5054443;28;20542;-76
2022/10/25 06:28:54;;;;;;;0.50;0.50;;;10.30;99.90;;;;;;5072753;28;20679;-75
2022/10/25 06:31:19;;;;;;;0.77;0.77;;;10.30;99.90;;;;;;5072453;28;20201;-75
2022/10/25 06:33:45;;;;;;;0.65;0.65;;;10.30;99.90;;;;;;5054656;28;20455;-77
2022/10/25 06:36:40;;;;;;;0.50;0.50;;;10.40;99.90;;;;;;5065743;28;20255;-76
2022/10/25 06:43:09;;;;;;;0.50;0.50;;;10.50;99.90;;;;;;4899725;29;20276;-71
2022/10/25 06:46:37;;;;;;;0.80;0.80;;;10.60;99.90;;;;;;4910541;28;20219;-73
2022/10/25 06:53:39;;;;;;;0.60;0.60;;;10.70;99.90;;;;;;4995679;28;20416;-72
2022/10/25 06:56:09;;;;;;;0.50;0.50;;;10.70;99.90;;;;;;4979433;28;20227;-70
2022/10/25 06:58:51;;;;;;;0.60;0.60;;;10.70;99.90;;;;;;5032487;28;20206;-69
2022/10/25 07:01:28;;;;;;;0.50;0.50;;;10.70;99.90;;;;;;5030363;28;20198;-70
2022/10/25 07:03:54;;;;;;;0.43;0.43;;;10.70;99.90;;;;;;5036899;28;20190;-71
2022/10/25 07:06:24;;;;;;;0.60;0.60;;;10.80;99.90;;;;;;5035463;28;20282;-71
2022/10/25 07:08:53;;;;;;;0.68;0.68;;;10.80;99.90;;;;;;5035749;28;20218;-70
2022/10/25 07:11:20;;;;;;;0.60;0.60;;;10.80;99.90;;;;;;5035970;28;20196;-71
2022/10/25 07:13:46;;;;;;;0.60;0.60;;;10.80;99.90;;;;;;5057888;28;20211;-70
2022/10/25 07:16:17;;;;;;;0.60;0.60;;;10.80;99.90;;;;;;5076036;28;20568;-71
2022/10/25 07:18:43;;;;;;;0.65;0.65;;;10.80;99.90;;;;;;5057876;28;20189;-73
2022/10/25 07:21:19;;;;;;;3.10;1.80;;;10.80;99.90;;;;;;5076269;28;20193;-71
2022/10/25 07:23:45;;;;;;;0.50;0.50;;;10.80;99.90;;;;;;5076029;28;20596;-71
2022/10/25 07:26:12;;;;;;;0.50;0.50;;;10.80;99.90;;;;;;5074896;28;20196;-73
2022/10/25 07:28:38;;;;;;;0.60;0.60;;;10.80;99.90;;;;;;5035629;28;20206;-72
2022/10/25 07:31:05;;;;;;;0.60;0.60;;;10.80;99.90;;;;;;5036080;28;20218;-72
2022/10/25 07:33:31;;;;;;;0.82;0.82;;;10.90;99.90;;;;;;5017796;28;20260;-72
2022/10/25 07:35:57;;;;;;;0.50;0.50;;;10.90;99.90;;;;;;5035766;28;20285;-73
2022/10/25 07:38:22;;;;;;;0.60;0.60;;;10.90;99.90;;;;;;5055434;28;20696;-72
2022/10/25 07:40:54;;;;;;;0.60;0.60;;;10.90;99.90;;;;;;5037783;28;20564;-72
2022/10/25 07:43:20;;;;;;;0.50;0.50;;;10.90;99.90;;;;;;5037387;28;20200;-72
2022/10/25 07:45:45;;;;;;;0.50;0.50;;;10.90;99.90;;;;;;5055122;28;20209;-72
2022/10/25 07:48:11;;;;;;;0.50;0.50;;;11.00;99.90;;;;;;5053915;28;20200;-73
2022/10/25 07:50:37;;;;;;;0.50;0.50;;;11.00;99.90;;;;;;5037371;28;20579;-72
2022/10/25 07:53:02;;;;;;;0.57;0.57;;;11.00;99.90;;;;;;5054713;28;20196;-72
2022/10/25 07:55:28;;;;;;;0.50;0.50;;;11.00;99.90;;;;;;5055008;28;20200;-72
2022/10/25 07:58:02;;;;;;;0.60;0.60;;;11.00;99.90;;;;;;5055145;28;20255;-72
2022/10/25 08:00:28;;;;;;;0.50;0.50;;;11.10;99.90;;;;;;5055063;28;20197;-73
2022/10/25 08:02:53;;;;;;;0.50;0.50;;;11.10;99.90;;;;;;5037399;28;20194;-73
2022/10/25 08:05:19;;;;;;;0.60;0.60;;;11.10;99.90;;;;;;5054965;28;20226;-73
2022/10/25 08:07:45;;;;;;;0.50;0.50;;;11.10;99.90;;;;;;5056119;28;20189;-72
2022/10/25 08:10:10;;;;;;;0.50;0.50;;;11.10;99.90;;;;;;5075159;28;20280;-72
2022/10/25 08:12:36;;;;;;;0.50;0.50;;;11.20;99.90;;;;;;5074831;28;20604;-72
2022/10/25 08:15:02;;;;;;;0.73;0.73;;;11.20;99.90;;;;;;5074888;28;20224;-72
2022/10/25 08:17:28;;;;;;;0.45;0.45;;;11.20;99.90;;;;;;5074583;28;20217;-72
2022/10/25 08:19:53;;;;;;;0.55;0.55;;;11.20;99.90;;;;;;5074744;28;20549;-73
2022/10/25 08:22:19;;;;;;;0.70;0.70;;;11.20;99.90;;;;;;5074781;28;20533;-72
2022/10/25 08:24:44;;;;;;;0.50;0.50;;;11.20;99.90;;;;;;5056893;28;20232;-71
2022/10/25 08:27:10;;;;;;;0.50;0.50;;;11.30;99.90;;;;;;5056612;28;20215;-71
2022/10/25 08:29:36;;;;;;;0.50;0.50;;;11.30;99.90;;;;;;5074472;28;20314;-71
2022/10/25 08:32:01;;;;;;;0.50;0.50;;;11.30;99.90;;;;;;5074092;28;20580;-71
2022/10/25 08:34:27;;;;;;;0.68;0.68;;;11.30;99.90;;;;;;5018917;28;20202;-72
2022/10/25 08:36:53;;;;;;;0.68;0.68;;;11.30;99.90;;;;;;5016770;28;20305;-71
2022/10/25 08:39:18;;;;;;;0.60;0.60;;;11.40;99.90;;;;;;5034414;28;20769;-72
2022/10/25 08:41:53;;;;;;;0.50;0.50;;;11.40;99.90;;;;;;5037403;28;20247;-71
2022/10/25 08:44:24;;;;;;;0.60;0.60;;;11.40;99.90;;;;;;5054104;28;20589;-73
2022/10/25 08:47:08;;;;;;;0.50;0.50;;;11.40;99.90;;;;;;5032991;28;20202;-71
2022/10/25 08:49:49;;;;;;;0.60;0.60;;;11.40;99.90;;;;;;5034225;28;20206;-71
2022/10/25 08:52:26;;;;;;;0.50;0.50;;;11.40;99.90;;;;;;5026040;28;20201;-72
2022/10/25 08:54:54;;;;;;;0.57;0.57;;;11.40;99.90;;;;;;5036337;28;20231;-72
2022/10/25 08:57:29;;;;;;;0.50;0.50;;;11.50;99.90;;;;;;5053911;28;20675;-71
2022/10/25 09:00:09;;;;;;;0.50;0.50;;;11.40;99.90;;;;;;5053595;28;20216;-71
2022/10/25 09:02:51;;;;;;;0.50;0.50;;;11.50;99.90;;;;;;5053984;28;20196;-72
2022/10/25 09:05:38;;;;;;;0.50;0.50;;;11.50;99.90;;;;;;5048140;28;20204;-71
2022/10/25 09:08:25;;;;;;;0.47;0.47;;;11.50;99.90;;;;;;5074034;28;20189;-73
2022/10/25 09:11:21;;;;;;;0.63;0.63;;;11.50;99.90;;;;;;5073353;28;20192;-71
2022/10/25 09:14:11;;;;;;;0.50;0.50;;;11.50;99.90;;;;;;5073857;28;20181;-72
2022/10/25 09:16:45;;;;;;;0.57;0.57;;;11.60;99.90;;;;;;5073359;28;20244;-72
2022/10/25 09:19:22;;;;;;;4.70;0.70;;;11.60;99.90;;;;;;5073703;28;20188;-71
2022/10/25 09:22:01;;;;;;;1.02;0.80;;;11.70;99.90;;;;;;5055602;28;20203;-73
2022/10/25 09:24:34;;;;;;;0.52;0.52;;;11.60;99.90;;;;;;5055617;28;20223;-71
2022/10/25 09:27:13;;;;;;;3.50;1.02;;;11.70;99.90;;;;;;5073711;28;20196;-72
2022/10/25 09:29:57;;;;;;;0.43;0.43;;;11.70;99.90;;;;;;5035352;28;20205;-72
2022/10/25 09:32:27;;;;;;;0.50;0.50;;;11.80;99.90;;;;;;5033336;28;20198;-72
2022/10/25 09:34:53;;;;;;;0.55;0.55;;;11.80;99.90;;;;;;5015868;28;20202;-72
2022/10/25 09:37:38;;;;;;;0.43;0.43;;;11.90;99.90;;;;;;5015569;28;20214;-72
2022/10/25 09:40:13;;;;;;;0.50;0.50;;;11.90;99.90;;;;;;5033416;28;20226;-72
2022/10/25 09:42:54;;;;;;;0.50;0.50;;;11.90;99.90;;;;;;5033252;28;20775;-73
2022/10/25 09:45:44;;;;;;;0.75;0.60;;;11.90;99.90;;;;;;5034787;28;20218;-73
2022/10/25 09:48:29;;;;;;;0.50;0.50;;;11.90;99.90;;;;;;5053107;28;20563;-72
2022/10/25 09:51:20;;;;;;;0.50;0.50;;;11.90;99.90;;;;;;5053278;28;20202;-73
2022/10/25 09:53:46;;;;;;;0.50;0.50;;;11.90;99.90;;;;;;5034592;28;20205;-72
2022/10/25 09:56:12;;;;;;;0.50;0.50;;;11.90;99.90;;;;;;5053151;28;20209;-73
2022/10/25 09:58:40;;;;;;;0.50;0.50;;;11.90;99.90;;;;;;5052763;28;20224;-73
2022/10/25 10:01:16;;;;;;;0.50;0.50;;;11.90;99.90;;;;;;5061013;28;20201;-73
2022/10/25 10:03:41;;;;;;;0.60;0.60;;;11.90;99.90;;;;;;5073381;28;20242;-72
2022/10/25 10:06:22;;;;;;;0.50;0.50;;;11.90;99.90;;;;;;5054945;28;20201;-72
2022/10/25 10:08:58;;;;;;;0.50;0.50;;;11.90;99.90;;;;;;5054978;28;20288;-72
2022/10/25 10:11:24;;;;;;;0.40;0.40;;;11.90;99.90;;;;;;5053920;28;20203;-72
2022/10/25 10:14:14;;;;;;;0.50;0.50;;;11.90;99.90;;;;;;5055149;28;20339;-73
2022/10/25 10:16:46;;;;;;;0.52;0.52;;;11.90;99.90;;;;;;5055015;28;20239;-73
2022/10/25 10:19:23;;;;;;;0.52;0.52;;;11.90;99.90;;;;;;5072984;28;20662;-72
2022/10/25 10:21:52;;;;;;;0.50;0.50;;;11.90;99.90;;;;;;5072851;28;20357;-72
2022/10/25 10:24:34;;;;;;;0.57;0.57;;;11.90;99.90;;;;;;5054902;28;20210;-73
2022/10/25 10:27:04;;;;;;;0.50;0.50;;;12.00;99.90;;;;;;5034595;28;20213;-72
2022/10/25 10:29:33;;;;;;;0.88;0.52;;;12.00;99.90;;;;;;5032764;28;20190;-72
2022/10/25 10:32:06;;;;;;;0.50;0.50;;;12.10;99.90;;;;;;5015090;28;20680;-72
2022/10/25 10:34:37;;;;;;;0.47;0.47;;;12.10;99.90;;;;;;5037896;28;20205;-71
2022/10/25 10:37:11;;;;;;;0.50;0.50;;;12.10;99.90;;;;;;5052615;28;20220;-70
2022/10/25 10:39:55;;;;;;;0.47;0.47;;;12.00;99.90;;;;;;5052419;28;20196;-72
2022/10/25 10:42:21;;;;;;;0.65;0.65;;;12.00;99.90;;;;;;5034645;28;20197;-71
2022/10/25 10:45:12;;;;;;;0.60;0.60;;;12.10;99.90;;;;;;5052483;28;20221;-71
2022/10/25 10:47:40;;;;;;;2.67;1.02;;;12.10;99.90;;;;;;5032527;28;20201;-71
2022/10/25 10:50:34;;;;;;;0.40;0.40;;;12.20;99.90;;;;;;5014777;28;20194;-72
2022/10/25 10:53:05;;;;;;;0.60;0.60;;;12.20;99.90;;;;;;5014988;28;20202;-72
2022/10/25 10:55:47;;;;;;;0.55;0.55;;;12.20;99.90;;;;;;5035617;28;20752;-70
2022/10/25 10:58:30;;;;;;;0.50;0.50;;;12.30;99.90;;;;;;5067782;28;20220;-71
2022/10/25 11:00:58;;;;;;;0.40;0.40;;;12.30;99.90;;;;;;5054341;28;20193;-71
2022/10/25 11:03:42;;;;;;;0.70;0.52;;;12.40;99.90;;;;;;5054258;28;20229;-72
2022/10/25 11:06:25;;;;;;;0.70;0.70;;;12.40;99.90;;;;;;5054492;28;20201;-71
2022/10/25 11:09:11;;;;;;;0.70;0.70;;;12.40;99.90;;;;;;5072586;28;20223;-72
2022/10/25 11:11:41;;;;;;;0.50;0.50;;;12.50;99.90;;;;;;5072367;28;20224;-72
2022/10/25 11:14:14;;;;;;;0.52;0.52;;;12.60;99.90;;;;;;5054533;28;20235;-71
2022/10/25 11:17:11;;;;;;;0.50;0.50;;;12.60;99.90;;;;;;5071969;28;20219;-72
2022/10/25 11:19:55;;;;;;;0.40;0.40;;;12.70;99.90;;;;;;5072135;28;20289;-73
2022/10/25 11:22:46;;;;;;;0.45;0.45;;;12.80;99.90;;;;;;5043707;28;20208;-72
2022/10/25 11:25:20;;;;;;;0.60;0.60;;;12.90;99.90;;;;;;5055910;28;20193;-72
2022/10/25 11:27:53;;;;;;;0.50;0.50;;;12.90;99.90;;;;;;5055840;28;20198;-72
2022/10/25 11:30:24;;;;;;;0.50;0.50;;;13.00;99.90;;;;;;5055336;28;20679;-73
2022/10/25 11:33:02;;;;;;;0.50;0.50;;;13.00;99.90;;;;;;5055654;28;20198;-72
2022/10/25 11:36:05;;;;;;;0.40;0.40;;;13.10;99.90;;;;;;5037453;28;20201;-72
2022/10/25 11:39:17;;;;;;;0.40;0.40;;;13.30;99.90;;;;;;5055334;28;20676;-74
2022/10/25 11:41:49;;;;;;;0.55;0.55;;;13.40;99.90;;;;;;5002536;28;20210;-73
2022/10/25 11:44:14;;;;;;;0.52;0.52;;;13.40;99.90;;;;;;5017644;28;20253;-73
2022/10/25 11:47:16;;;;;;;0.60;0.60;;;13.40;99.90;;;;;;5026466;28;20681;-73
2022/10/25 11:49:44;;;;;;;0.43;0.43;;;13.40;99.90;;;;;;4938956;29;20207;-73
2022/10/25 11:52:46;;;;;;;0.45;0.45;;;13.40;99.90;;;;;;4955159;29;20237;-73
2022/10/25 11:55:14;;;;;;;0.40;0.40;;;13.40;99.90;;;;;;4955100;29;20223;-73
2022/10/25 11:58:04;;;;;;;0.50;0.50;;;13.40;99.90;;;;;;4954685;29;20719;-72
2022/10/25 12:00:47;;;;;;;0.50;0.50;;;13.40;99.90;;;;;;4954890;29;20252;-74
2022/10/25 12:03:24;;;;;;;0.40;0.40;;;13.50;99.90;;;;;;4938828;29;20699;-73
2022/10/25 12:06:20;;;;;;;0.52;0.52;;;13.40;99.90;;;;;;4954912;28;20204;-74
2022/10/25 12:09:03;;;;;;;0.40;0.40;;;13.40;99.90;;;;;;4955021;29;20197;-73
2022/10/25 12:11:38;;;;;;;0.73;0.73;;;13.30;99.90;;;;;;4954763;29;20209;-74
2022/10/25 12:14:09;;;;;;;0.50;0.50;;;13.30;99.90;;;;;;4938795;29;20723;-75
2022/10/25 12:16:35;;;;;;;0.50;0.50;;;13.30;99.90;;;;;;4954460;29;20752;-75
2022/10/25 12:19:18;;;;;;;0.40;0.40;;;13.30;99.90;;;;;;4954581;29;20716;-76
2022/10/25 12:21:54;;;;;;;0.40;0.40;;;13.30;99.90;;;;;;4954199;29;20291;-74
2022/10/25 12:24:25;;;;;;;0.40;0.40;;;13.20;99.90;;;;;;5030990;28;20695;-72
2022/10/25 12:26:53;;;;;;;0.43;0.43;;;13.20;99.90;;;;;;5036771;28;20726;-69
2022/10/25 12:29:33;;;;;;;0.57;0.57;;;13.20;99.90;;;;;;5055232;28;20255;-71
2022/10/25 12:32:01;;;;;;;0.40;0.40;;;13.10;99.90;;;;;;5054934;28;20603;-70
2022/10/25 12:34:44;;;;;;;0.40;0.40;;;13.10;99.90;;;;;;5053403;28;20561;-70
2022/10/25 12:37:21;;;;;;;0.40;0.40;;;13.10;99.90;;;;;;5054723;28;20726;-72
2022/10/25 12:39:47;;;;;;;0.40;0.40;;;13.00;99.90;;;;;;5037132;28;20319;-71
2022/10/25 12:42:23;;;;;;;0.40;0.40;;;13.00;99.90;;;;;;5036499;28;20235;-70
2022/10/25 12:45:22;;;;;;;0.40;0.40;;;13.00;99.90;;;;;;5054223;28;20735;-71
2022/10/25 12:47:58;;;;;;;0.40;0.40;;;13.00;99.90;;;;;;5016531;28;20657;-70
2022/10/25 12:50:23;;;;;;;0.40;0.40;;;12.90;99.90;;;;;;5059231;28;20253;-71
2022/10/25 12:53:17;;;;;;;0.40;0.40;;;12.90;99.90;;;;;;5073903;28;20561;-71
2022/10/25 12:55:58;;;;;;;0.50;0.50;;;12.80;99.90;;;;;;5074049;28;20196;-74
2022/10/25 12:58:50;;;;;;;0.55;0.55;;;12.80;99.90;;;;;;5074236;28;20594;-70
2022/10/25 13:01:31;;;;;;;0.40;0.40;;;12.70;99.90;;;;;;5056064;28;20192;-73
2022/10/25 13:04:19;;;;;;;0.40;0.40;;;12.70;99.90;;;;;;5056195;28;20196;-71
2022/10/25 13:07:17;;;;;;;0.40;0.40;;;12.60;99.90;;;;;;5037676;28;20220;-72
2022/10/25 13:09:43;;;;;;;0.40;0.40;;;12.60;99.90;;;;;;5035458;28;20727;-72
2022/10/25 13:12:22;;;;;;;0.50;0.50;;;12.60;99.90;;;;;;5053792;28;20221;-73
2022/10/25 13:14:51;;;;;;;0.50;0.50;;;12.60;99.90;;;;;;5054008;28;20204;-72
2022/10/25 13:17:17;;;;;;;0.50;0.50;;;12.50;99.90;;;;;;5053594;28;20237;-72
2022/10/25 13:19:49;;;;;;;0.40;0.40;;;12.50;99.90;;;;;;5053665;28;20221;-72
2022/10/25 13:22:30;;;;;;;0.50;0.50;;;12.50;99.90;;;;;;5035690;28;20193;-72
2022/10/25 13:25:16;;;;;;;0.50;0.50;;;12.40;99.90;;;;;;5035551;28;20197;-73
2022/10/25 13:28:09;;;;;;;0.40;0.40;;;12.40;99.90;;;;;;5053512;28;20245;-72